Strona główna
METAR-TAF:

METAR-TAF

Lotnisko :

Port lotniczy Anchorage-Ted Stevens

Anchorage, Alaska, Stany Zjednoczone

Szerokość geograficzna: 61-10-28N, Długość geograficzna: 149-59-46W, wysokość: 44 m

Aktualna obserwacja pogody

Raport powstał 24 minut temu, godzina 02:53 UTC
Wiatr 6 kt od zachodnio-północny zachód
Temperatura 19°C
Wilgotność 56%
Ciśnienie 1017 hPa
Widzialność: 16.1 km
Mało chmury na wysokości 5000 ft
Rozproszone chmury na wysokości 7500 ft
Rozproszone chmury na wysokości 20000 ft

METAR: PANC 180253Z 29006KT 10SM FEW050 SCT075 SCT200 19/10 A3004 RMK AO2 SLP173 SH DSNT NW-NE T01890100 55001

czas: 19:17 (03:17 UTC)

Prognoza

Raport powstał 3 godziny i 49 minut temu, godzina 23:28 UTC
Prognoza ważna od 18 godzina 00 UTC do 19 godzina 06 UTC
Wiatr 6 kt od zachód
Widzialność: 10 km
Mało chmury na wysokości 6000 ft
Rozproszone chmury na wysokości 20000 ft

TAF: PANC 172328Z 1800/1906 28006KT P6SM FEW060 SCT200

Obserwacja i prognoza pogody dla ponad 4000 lotnisk (raport METAR i TAF).

Dostępne stacje oznaczono żółtymi i czerwonymi punktami na mapie.

Najedź kursorem aby zobaczyć nazwę stacji.

Kliknij aby zobaczyć obserwacje i prognozy pogody.

Aby zmienić mapę: kliknij na zielony przycisk z czarnym krzyżykiem, aby powiększyć; na zielony przycisk z myślnikiem, aby pomniejszyć; na zielone strzałki, aby przejść do map sąsiednich.


METAR-TAF: